Fermeuse, Canada
Current Conditions -  °F | °C
As of 3:00 PM on Monday 20 Oct 2014 (Local Time) from CYYT Reporting Station
Scattered Clouds Scattered Clouds  
Wind Chill: 59°   Ceiling: Unl
Heat Index: 59°   Visibility: 15mi
Dew Point: 54°   Wind: 26mph
Humidity: 82%   Direction: 230°SW
Pressure: 29.53"   Gusts: 40mph
Location:  46.97°N, 52.97°W
Report Text: CYYT 201700Z 23023G35KT 15SM FEW020 SCT050 SCT200 15/12 A2953 RMK CU2SC1CI1 SLP000 DENSITY ALT 1000FT
Loading
Personal Weather Stations






























Interactive Weather Map
Tropical Storm Tracking
New forecast layout! Learn more

10-Day Weather Forecast

Advertisements
Track Severe Weather on mobile